Riley, Indiana
Current Conditions -  °F | °C
As of 9:53 AM on Friday 19 Dec 2014 (Local Time) from KHUF Reporting Station
Clear Clear  
Wind Chill: 22°   Ceiling: Unl
Heat Index: 27°   Visibility: 9mi
Dew Point: 20°   Wind: 5mph
Humidity: 75%   Direction: 30°NNE
Pressure: 30.33"   Gusts: NA
Location:  39.39°N, 87.3°W
Report Text: KHUF 191453Z 03004KT 9SM CLR M03/M07 A3033 RMK AO2 SLP277 I3000 T10281067 53012
Loading
Personal Weather Stations






























Interactive Weather Map New forecast layout! Learn more

10-Day Weather Forecast

Advertisements
Track Severe Weather on mobile